Time;durP1;ratioP1;P1;durP2;ratioP2;P2;SDS_P1;SDS_P2;PMS_P1;PMS_P2;Temp;Humidity;BMP_temperature;BMP_pressure;BME280_temperature;BME280_humidity;BME280_pressure;Samples;Min_cycle;Max_cycle;Signal;HPM_P1;HPM_P2
2023/10/19 00:02:19;;;;;;;2.27;1.30;;;2.90;99.90;;;;;;1930400;72;25264;-92
2023/10/19 00:05:09;;;;;;;2.40;1.60;;;2.80;99.90;;;;;;1959940;72;25769;-92
2023/10/19 00:07:59;;;;;;;3.53;1.60;;;2.90;99.90;;;;;;1941171;72;25160;-92
2023/10/19 00:13:32;;;;;;;1.03;0.97;;;2.80;99.90;;;;;;1893712;74;27038;-92
2023/10/19 00:16:22;;;;;;;2.57;1.20;;;2.80;99.90;;;;;;1829023;76;25627;-92
2023/10/19 00:19:11;;;;;;;2.23;1.20;;;2.80;99.90;;;;;;1860417;76;25294;-92
2023/10/19 00:22:08;;;;;;;1.20;1.10;;;2.80;99.90;;;;;;1839774;76;25171;-92
2023/10/19 00:24:50;;;;;;;2.73;1.37;;;2.80;99.90;;;;;;1844862;76;25603;-92
2023/10/19 00:27:39;;;;;;;2.97;1.30;;;2.80;99.90;;;;;;1848609;76;25765;-92
2023/10/19 00:30:32;;;;;;;1.20;1.10;;;2.80;99.90;;;;;;1857617;76;25325;-92
2023/10/19 00:33:21;;;;;;;1.00;1.00;;;2.80;99.90;;;;;;1828396;76;25233;-91
2023/10/19 00:36:13;;;;;;;1.87;0.93;;;2.70;99.90;;;;;;1846774;76;25640;-92
2023/10/19 00:39:13;;;;;;;1.00;1.00;;;2.80;99.90;;;;;;1850369;76;25264;-92
2023/10/19 00:41:56;;;;;;;1.43;1.20;;;2.80;99.90;;;;;;1844034;76;25896;-91
2023/10/19 00:52:03;;;;;;;1.53;1.27;;;2.80;99.90;;;;;;1925842;72;27142;-92
2023/10/19 00:57:49;;;;;;;5.13;1.13;;;2.80;99.90;;;;;;1948388;72;27589;-92
2023/10/19 01:00:43;;;;;;;1.77;1.10;;;2.70;99.90;;;;;;1919684;73;25253;-92
2023/10/19 01:03:32;;;;;;;1.90;0.90;;;2.80;99.90;;;;;;1916746;73;25781;-92
2023/10/19 01:06:20;;;;;;;3.93;1.17;;;2.70;99.90;;;;;;1916821;73;25218;-92
2023/10/19 01:11:52;;;;;;;2.43;1.00;;;2.60;99.90;;;;;;1906441;74;27081;-92
2023/10/19 01:17:31;;;;;;;1.93;0.97;;;2.60;99.90;;;;;;1955525;72;27042;-92
2023/10/19 01:20:22;;;;;;;1.20;0.90;;;2.50;99.90;;;;;;1933876;73;25906;-92
2023/10/19 01:23:20;;;;;;;1.20;1.10;;;2.50;99.90;;;;;;1928876;73;25166;-92
2023/10/19 01:26:08;;;;;;;1.53;1.10;;;2.50;99.90;;;;;;1931909;73;25236;-92
2023/10/19 01:29:01;;;;;;;0.97;0.97;;;2.50;99.90;;;;;;1928357;73;25182;-92
2023/10/19 01:31:56;;;;;;;0.80;0.80;;;2.50;99.90;;;;;;1927959;73;25282;-92
2023/10/19 01:34:41;;;;;;;1.00;1.00;;;2.50;99.90;;;;;;1936026;73;25754;-92
2023/10/19 01:37:31;;;;;;;1.10;1.00;;;2.50;99.90;;;;;;1929103;73;25195;-92
2023/10/19 01:40:20;;;;;;;2.03;0.90;;;2.40;99.90;;;;;;1947633;73;25631;-92
2023/10/19 01:43:09;;;;;;;1.30;0.93;;;2.30;99.90;;;;;;1908123;74;25327;-92
2023/10/19 01:45:58;;;;;;;0.97;0.97;;;2.20;99.90;;;;;;1909876;75;25869;-92
2023/10/19 01:48:49;;;;;;;0.80;0.80;;;2.20;99.90;;;;;;1897941;73;25295;-92
2023/10/19 01:51:39;;;;;;;0.87;0.87;;;2.10;99.90;;;;;;1923778;74;25402;-92
2023/10/19 01:57:08;;;;;;;1.10;0.80;;;1.90;99.90;;;;;;1934477;72;27344;-92
2023/10/19 01:59:57;;;;;;;1.23;0.90;;;1.90;99.90;;;;;;1911217;75;25216;-92
2023/10/19 02:02:47;;;;;;;1.43;1.00;;;1.80;99.90;;;;;;1906708;75;25185;-92
2023/10/19 02:05:41;;;;;;;1.17;0.97;;;1.80;99.90;;;;;;1910798;75;25175;-92
2023/10/19 02:08:30;;;;;;;1.10;1.00;;;1.80;99.90;;;;;;1887434;75;25269;-92
2023/10/19 02:11:21;;;;;;;0.90;0.90;;;1.80;99.90;;;;;;1886022;75;25821;-92
2023/10/19 02:14:14;;;;;;;2.33;1.33;;;1.80;99.90;;;;;;1910614;75;25717;-92
2023/10/19 02:17:03;;;;;;;0.90;0.90;;;1.80;99.90;;;;;;1888547;73;25281;-92
2023/10/19 02:19:53;;;;;;;1.93;1.10;;;1.80;99.90;;;;;;1885578;75;25284;-92
2023/10/19 02:22:42;;;;;;;1.17;1.07;;;1.70;99.90;;;;;;1892002;75;25230;-92
2023/10/19 02:25:36;;;;;;;1.03;1.03;;;1.70;99.90;;;;;;1911770;73;25291;-92
2023/10/19 02:28:29;;;;;;;1.10;0.93;;;1.70;99.90;;;;;;1886862;73;25256;-92
2023/10/19 02:31:15;;;;;;;1.20;0.80;;;1.60;99.90;;;;;;1893344;75;25250;-92
2023/10/19 02:34:02;;;;;;;0.57;0.57;;;1.60;99.90;;;;;;1881470;73;25316;-92
2023/10/19 02:36:50;;;;;;;0.90;0.90;;;1.50;99.90;;;;;;1900635;73;25173;-92
2023/10/19 02:39:39;;;;;;;1.60;1.10;;;1.50;99.90;;;;;;1893431;75;25265;-92
2023/10/19 02:42:28;;;;;;;1.03;1.00;;;1.40;99.90;;;;;;1901503;75;25242;-91
2023/10/19 03:07:21;;;;;;;0.87;0.87;;;1.40;99.90;;;;;;1961968;71;27640;-92
2023/10/19 03:10:22;;;;;;;1.07;0.90;;;1.40;99.90;;;;;;1903110;73;25230;-92
2023/10/19 03:13:04;;;;;;;0.90;0.90;;;1.40;99.90;;;;;;1931747;73;25652;-91
2023/10/19 03:15:53;;;;;;;1.10;1.00;;;1.50;99.90;;;;;;1913596;73;25227;-92
2023/10/19 03:18:41;;;;;;;1.10;0.93;;;1.50;99.90;;;;;;1915483;75;25188;-92
2023/10/19 03:21:33;;;;;;;0.80;0.80;;;1.50;99.90;;;;;;1904916;73;25682;-92
2023/10/19 03:27:12;;;;;;;5.30;0.90;;;1.50;99.90;;;;;;1940620;72;27131;-92
2023/10/19 03:30:00;;;;;;;1.00;1.00;;;1.60;99.90;;;;;;1920573;72;25680;-92
2023/10/19 03:32:48;;;;;;;1.00;0.87;;;1.60;99.90;;;;;;1955676;73;25316;-91
2023/10/19 03:35:41;;;;;;;1.97;1.10;;;1.60;99.90;;;;;;1934088;73;25298;-92
2023/10/19 03:38:34;;;;;;;1.10;1.00;;;1.60;99.90;;;;;;1945459;72;25312;-92
2023/10/19 03:46:14;;;;;;;1.30;1.20;;;1.50;99.90;;;;;;1958682;71;26573;-92
2023/10/19 03:52:45;;;;;;;1.07;0.97;;;1.30;99.90;;;;;;1988727;71;27047;-92
2023/10/19 03:55:38;;;;;;;3.03;1.47;;;1.20;99.90;;;;;;1951484;72;25792;-92
2023/10/19 03:58:24;;;;;;;2.27;1.03;;;1.20;99.90;;;;;;2044198;69;25216;-92
2023/10/19 04:01:16;;;;;;;1.13;0.80;;;1.20;99.90;;;;;;2038840;69;25217;-92
2023/10/19 04:04:02;;;;;;;1.10;1.00;;;1.10;99.90;;;;;;2042012;69;25628;-92
2023/10/19 04:06:57;;;;;;;1.47;1.10;;;1.10;99.90;;;;;;2040890;69;25182;-92
2023/10/19 04:09:56;;;;;;;1.10;1.00;;;1.10;99.90;;;;;;2031002;69;25182;-91
2023/10/19 04:12:31;;;;;;;1.23;0.90;;;1.00;99.90;;;;;;2045716;69;25237;-91
2023/10/19 04:15:19;;;;;;;1.57;1.00;;;1.00;99.90;;;;;;2038501;69;25206;-91
2023/10/19 04:20:55;;;;;;;1.07;1.00;;;1.00;99.90;;;;;;1940709;72;27557;-91
2023/10/19 04:23:44;;;;;;;0.90;0.90;;;0.90;99.90;;;;;;1917670;73;25356;-92
2023/10/19 04:26:36;;;;;;;1.07;0.80;;;0.90;99.90;;;;;;1898963;74;25246;-92
2023/10/19 04:29:27;;;;;;;1.27;1.17;;;0.80;99.90;;;;;;1916438;73;25702;-91
2023/10/19 04:32:14;;;;;;;2.63;1.00;;;0.90;99.90;;;;;;1911160;73;25231;-91
2023/10/19 04:35:03;;;;;;;1.27;0.90;;;0.90;99.90;;;;;;1913994;73;25348;-91
2023/10/19 04:37:53;;;;;;;1.50;0.97;;;0.90;99.90;;;;;;1864809;75;25202;-91
2023/10/19 04:40:42;;;;;;;1.57;1.10;;;0.80;99.90;;;;;;1912384;75;25227;-91
2023/10/19 04:43:30;;;;;;;2.77;1.30;;;0.80;99.90;;;;;;1908987;74;25770;-91
2023/10/19 04:46:19;;;;;;;2.37;1.10;;;0.70;99.90;;;;;;1900691;73;25223;-91
2023/10/19 04:49:07;;;;;;;2.47;1.40;;;0.70;99.90;;;;;;1902505;74;25218;-91
2023/10/19 04:51:56;;;;;;;1.50;1.17;;;0.70;99.90;;;;;;1903109;73;25244;-91
2023/10/19 04:54:44;;;;;;;3.00;1.10;;;0.70;99.90;;;;;;1908468;74;25731;-91
2023/10/19 05:00:29;;;;;;;1.73;1.00;;;0.60;99.90;;;;;;1945097;72;27550;-92
2023/10/19 05:03:19;;;;;;;5.20;1.30;;;0.60;99.90;;;;;;1921200;73;25858;-92
2023/10/19 05:06:09;;;;;;;1.50;1.10;;;0.60;99.90;;;;;;1928924;73;25180;-92
2023/10/19 05:08:57;;;;;;;2.53;1.10;;;0.50;99.90;;;;;;1917143;73;25246;-92
2023/10/19 05:11:46;;;;;;;1.40;1.20;;;0.50;99.90;;;;;;1923820;73;25663;-91
2023/10/19 05:14:35;;;;;;;3.40;1.17;;;0.50;99.90;;;;;;1920113;73;26486;-92
2023/10/19 05:17:24;;;;;;;4.03;1.20;;;0.40;99.90;;;;;;1935457;73;25237;-91
2023/10/19 05:20:14;;;;;;;1.10;1.00;;;0.30;99.90;;;;;;1923406;73;25239;-92
2023/10/19 05:23:04;;;;;;;2.40;0.90;;;0.30;99.90;;;;;;1933555;73;25285;-92
2023/10/19 05:25:53;;;;;;;2.97;1.20;;;0.20;99.90;;;;;;1923756;73;25209;-92
2023/10/19 05:28:43;;;;;;;1.20;1.03;;;0.20;99.90;;;;;;1939156;73;25269;-91
2023/10/19 05:31:31;;;;;;;2.13;1.23;;;0.20;99.90;;;;;;1925832;73;25150;-91
2023/10/19 05:34:19;;;;;;;1.50;1.07;;;0.10;99.90;;;;;;1925456;73;25217;-90
2023/10/19 05:37:08;;;;;;;1.80;1.10;;;0.20;99.90;;;;;;1934798;73;25225;-91
2023/10/19 05:39:57;;;;;;;2.97;1.20;;;0.10;99.90;;;;;;1916984;73;25246;-90
2023/10/19 05:42:46;;;;;;;1.33;1.20;;;0.20;99.90;;;;;;1915366;73;25307;-91
2023/10/19 05:45:36;;;;;;;1.87;1.13;;;0.10;99.90;;;;;;1909772;74;25211;-90
2023/10/19 05:51:10;;;;;;;1.67;1.30;;;0.20;99.90;;;;;;1935809;72;27197;-92
2023/10/19 05:54:02;;;;;;;2.37;1.20;;;0.10;99.90;;;;;;1919581;72;25208;-92
2023/10/19 05:56:51;;;;;;;1.30;1.20;;;0.00;99.90;;;;;;1919861;73;25219;-92
2023/10/19 05:59:40;;;;;;;1.77;1.10;;;0.00;99.90;;;;;;1930402;73;25227;-92
2023/10/19 06:02:29;;;;;;;2.33;1.10;;;0.10;99.90;;;;;;1927932;73;25196;-92
2023/10/19 06:05:19;;;;;;;1.53;1.10;;;0.00;99.90;;;;;;1933081;73;25162;-92
2023/10/19 06:08:08;;;;;;;3.80;1.30;;;-0.10;99.90;;;;;;1944204;72;25919;-92
2023/10/19 06:10:57;;;;;;;4.27;1.43;;;-0.10;99.90;;;;;;1932328;73;25170;-92
2023/10/19 06:13:46;;;;;;;5.97;1.17;;;-0.10;99.90;;;;;;1929797;73;25140;-92
2023/10/19 06:16:34;;;;;;;4.30;1.30;;;0.00;99.90;;;;;;1918691;73;25229;-92
2023/10/19 06:19:23;;;;;;;1.40;1.30;;;0.00;99.90;;;;;;1916462;75;25221;-92
2023/10/19 06:22:12;;;;;;;6.43;1.40;;;0.00;99.90;;;;;;1916764;75;25229;-92
2023/10/19 06:54:54;;;;;;;2.00;0.90;;;0.20;99.90;;;;;;1952120;72;27155;-91
2023/10/19 07:05:58;;;;;;;3.43;1.27;;;0.30;99.90;;;;;;2083508;68;27979;-92
2023/10/19 07:08:47;;;;;;;3.10;1.20;;;0.40;99.90;;;;;;2008880;71;25274;-92
2023/10/19 07:11:35;;;;;;;1.30;0.80;;;0.50;99.90;;;;;;1993483;71;25193;-92
2023/10/19 07:14:24;;;;;;;1.70;1.07;;;0.60;99.90;;;;;;2034449;69;25832;-92
2023/10/19 07:17:13;;;;;;;1.47;0.87;;;0.60;99.90;;;;;;2014356;70;25148;-93
2023/10/19 07:20:02;;;;;;;1.47;1.10;;;0.70;99.90;;;;;;2015918;70;25636;-92
2023/10/19 07:22:51;;;;;;;2.60;0.90;;;0.70;99.90;;;;;;2025481;69;25297;-93
2023/10/19 07:25:43;;;;;;;1.77;0.90;;;0.70;99.90;;;;;;1985118;70;25258;-92
2023/10/19 07:28:33;;;;;;;1.97;0.63;;;0.80;99.90;;;;;;1999363;70;25606;-92
2023/10/19 07:31:22;;;;;;;2.43;1.20;;;0.90;99.90;;;;;;2027269;70;25117;-92
2023/10/19 07:48:10;;;;;;;3.87;1.20;;;1.20;99.90;;;;;;1912761;73;26463;-91
2023/10/19 08:18:31;;;;;;;0.60;0.60;;;2.00;99.90;;;;;;1918982;73;27136;-91
2023/10/19 08:21:21;;;;;;;3.27;1.10;;;2.20;99.90;;;;;;1934553;72;25638;-91
2023/10/19 08:27:01;;;;;;;0.50;0.50;;;2.20;99.90;;;;;;1953333;72;27037;-92
2023/10/19 08:29:50;;;;;;;5.77;1.07;;;2.10;99.90;;;;;;1933953;73;25852;-92
2023/10/19 08:32:39;;;;;;;1.87;1.10;;;2.20;99.90;;;;;;1939635;72;25258;-92
2023/10/19 08:35:27;;;;;;;2.17;0.93;;;2.40;99.90;;;;;;1902387;73;25312;-92
2023/10/19 08:38:17;;;;;;;2.03;0.60;;;2.30;99.90;;;;;;1904622;74;25209;-93
2023/10/19 08:41:05;;;;;;;1.87;0.80;;;2.30;99.90;;;;;;1908436;73;25183;-91
2023/10/19 08:48:44;;;;;;;2.20;1.03;;;2.70;99.90;;;;;;1990863;71;27008;-92
2023/10/19 08:51:32;;;;;;;2.10;0.93;;;2.70;99.90;;;;;;2019806;69;25710;-92
2023/10/19 08:54:21;;;;;;;1.30;0.80;;;2.70;99.90;;;;;;2016428;69;25228;-92
2023/10/19 08:57:11;;;;;;;1.73;0.77;;;2.90;99.90;;;;;;2017718;69;25187;-92
2023/10/19 09:00:00;;;;;;;2.77;1.27;;;3.00;99.90;;;;;;2012485;69;25273;-92
2023/10/19 09:02:48;;;;;;;1.07;1.00;;;3.10;99.90;;;;;;2030266;69;25238;-92
2023/10/19 09:05:40;;;;;;;3.07;1.03;;;3.30;99.90;;;;;;2023761;69;25165;-92
2023/10/19 09:08:38;;;;;;;1.37;0.80;;;3.10;99.90;;;;;;2026566;70;25282;-92
2023/10/19 09:11:20;;;;;;;1.23;0.60;;;2.90;99.90;;;;;;2027388;69;25244;-92
2023/10/19 09:14:12;;;;;;;2.10;0.97;;;3.00;99.90;;;;;;2038675;69;26571;-92
2023/10/19 09:17:00;;;;;;;2.30;1.07;;;3.10;99.90;;;;;;2014160;70;25250;-92
2023/10/19 09:22:44;;;;;;;1.80;0.90;;;3.20;99.90;;;;;;1943339;72;27069;-93
2023/10/19 09:28:13;;;;;;;0.57;0.57;;;3.20;99.90;;;;;;1945167;72;27513;-92
2023/10/19 09:31:03;;;;;;;1.00;0.87;;;3.20;99.90;;;;;;1916918;73;25767;-92
2023/10/19 09:33:53;;;;;;;2.23;1.33;;;3.20;99.90;;;;;;1928171;73;25229;-92
2023/10/19 09:36:43;;;;;;;7.03;1.07;;;3.20;99.90;;;;;;1916930;75;25234;-92
2023/10/19 09:39:35;;;;;;;6.57;1.10;;;3.30;99.90;;;;;;1916749;73;25698;-92
2023/10/19 09:42:26;;;;;;;1.67;0.90;;;3.30;99.90;;;;;;1904135;73;25808;-92
2023/10/19 09:48:02;;;;;;;0.50;0.50;;;3.10;99.90;;;;;;1909483;74;27204;-92
2023/10/19 09:50:55;;;;;;;2.37;0.73;;;3.30;99.90;;;;;;1868613;76;25181;-92
2023/10/19 09:53:47;;;;;;;3.07;0.87;;;3.40;99.90;;;;;;1862797;75;25164;-92
2023/10/19 09:56:41;;;;;;;3.07;0.63;;;3.40;99.90;;;;;;1876471;75;25595;-92
2023/10/19 09:59:33;;;;;;;0.80;0.80;;;3.70;99.90;;;;;;1870416;74;25222;-92
2023/10/19 10:02:22;;;;;;;0.63;0.63;;;3.70;99.90;;;;;;1883099;75;25252;-92
2023/10/19 10:05:50;;;;;;;2.87;0.70;;;3.80;99.90;;;;;;1871743;75;25248;-92
2023/10/19 10:08:40;;;;;;;1.23;0.73;;;3.50;99.90;;;;;;1872603;76;25683;-92
2023/10/19 10:11:30;;;;;;;4.83;0.93;;;3.50;99.90;;;;;;1862939;76;25742;-92
2023/10/19 10:14:24;;;;;;;4.17;1.17;;;3.50;99.90;;;;;;1867753;75;25358;-92
2023/10/19 10:17:18;;;;;;;2.77;0.97;;;3.60;99.90;;;;;;1870270;75;25274;-92
2023/10/19 10:20:34;;;;;;;6.27;0.90;;;3.80;99.90;;;;;;1862625;75;25257;-92
2023/10/19 10:23:26;;;;;;;0.50;0.50;;;3.70;99.90;;;;;;1876541;75;25260;-92
2023/10/19 10:26:16;;;;;;;2.73;1.20;;;3.80;99.90;;;;;;1860549;75;25258;-92
2023/10/19 10:29:14;;;;;;;0.77;0.77;;;3.90;99.90;;;;;;1873667;75;25179;-92
2023/10/19 10:32:05;;;;;;;3.33;1.20;;;3.80;99.90;;;;;;1866239;76;25216;-93
2023/10/19 10:34:55;;;;;;;2.73;1.33;;;3.60;99.90;;;;;;1866178;76;25266;-92
2023/10/19 10:37:49;;;;;;;5.33;1.10;;;3.70;99.90;;;;;;1813313;77;25234;-92
2023/10/19 10:40:45;;;;;;;1.30;0.93;;;3.80;99.90;;;;;;1803765;78;25329;-93
2023/10/19 10:46:22;;;;;;;2.07;0.90;;;4.00;99.90;;;;;;1961069;72;27491;-92
2023/10/19 10:49:11;;;;;;;0.73;0.70;;;4.00;99.90;;;;;;1946697;73;25177;-92
2023/10/19 10:52:00;;;;;;;1.40;0.87;;;3.90;99.90;;;;;;1939325;73;25162;-92
2023/10/19 10:54:48;;;;;;;4.67;0.70;;;4.00;99.90;;;;;;1926679;73;25679;-92
2023/10/19 10:57:37;;;;;;;0.40;0.40;;;4.20;99.90;;;;;;1918991;73;25220;-92
2023/10/19 11:00:27;;;;;;;1.57;0.70;;;4.20;99.90;;;;;;1919427;73;25223;-92
2023/10/19 11:03:16;;;;;;;1.93;0.80;;;4.30;99.90;;;;;;1922107;73;25383;-92
2023/10/19 11:08:55;;;;;;;1.07;0.60;;;4.10;99.90;;;;;;1944545;72;27027;-92
2023/10/19 11:11:43;;;;;;;0.40;0.40;;;4.10;99.90;;;;;;1923112;73;25178;-92
2023/10/19 11:14:32;;;;;;;2.40;0.80;;;4.00;99.90;;;;;;1925596;72;25819;-91
2023/10/19 11:17:23;;;;;;;1.83;1.00;;;4.00;99.90;;;;;;1927475;72;25169;-92
2023/10/19 11:20:14;;;;;;;0.50;0.50;;;4.00;99.90;;;;;;1927079;72;25162;-92
2023/10/19 11:23:02;;;;;;;1.23;0.80;;;4.00;99.90;;;;;;1935741;73;25213;-91
2023/10/19 11:36:39;;;;;;;1.30;0.60;;;3.90;99.90;;;;;;1896811;75;25308;-92
2023/10/19 11:39:55;;;;;;;1.60;0.73;;;4.00;99.90;;;;;;1926078;73;25238;-91
2023/10/19 11:42:47;;;;;;;3.53;0.90;;;3.80;99.90;;;;;;1930875;73;25287;-92
2023/10/19 12:26:40;;;;;;;0.50;0.50;;;3.50;99.90;;;;;;1942704;72;27053;-91
2023/10/19 12:32:12;;;;;;;0.60;0.60;;;4.10;99.90;;;;;;1931210;72;27025;-92
2023/10/19 12:35:03;;;;;;;0.40;0.40;;;4.00;99.90;;;;;;1869217;76;25213;-92
2023/10/19 12:51:23;;;;;;;0.50;0.50;;;3.80;99.90;;;;;;1855892;75;27214;-91
2023/10/19 12:57:00;;;;;;;0.97;0.70;;;3.70;99.90;;;;;;1965523;71;27086;-92
2023/10/19 12:59:50;;;;;;;0.67;0.67;;;3.60;99.90;;;;;;1909536;73;25469;-92
2023/10/19 13:02:39;;;;;;;1.20;0.80;;;3.60;99.90;;;;;;1917299;74;26374;-92
2023/10/19 13:05:29;;;;;;;0.70;0.70;;;3.60;99.90;;;;;;1898568;74;25347;-92
2023/10/19 13:08:18;;;;;;;0.60;0.60;;;3.70;99.90;;;;;;1885343;74;25718;-93
2023/10/19 13:11:07;;;;;;;1.27;0.70;;;3.80;99.90;;;;;;1908246;74;25310;-93
2023/10/19 13:16:41;;;;;;;0.60;0.60;;;3.80;99.90;;;;;;1950681;72;26940;-92
2023/10/19 13:24:44;;;;;;;0.60;0.60;;;3.80;99.90;;;;;;1934651;73;26725;-92
2023/10/19 13:27:33;;;;;;;1.33;0.80;;;3.60;99.90;;;;;;1929275;72;25162;-92
2023/10/19 13:30:23;;;;;;;1.10;0.70;;;3.50;99.90;;;;;;1947268;72;25163;-92
2023/10/19 13:33:13;;;;;;;0.60;0.60;;;3.50;99.90;;;;;;1873343;76;25193;-91
2023/10/19 13:36:04;;;;;;;0.90;0.73;;;3.50;99.90;;;;;;1896941;75;25217;-90
2023/10/19 13:38:52;;;;;;;0.60;0.60;;;3.60;99.90;;;;;;1884507;75;25209;-91
2023/10/19 13:41:41;;;;;;;1.13;0.70;;;3.60;99.90;;;;;;1886097;75;25636;-91
2023/10/19 13:44:30;;;;;;;1.70;0.87;;;3.60;99.90;;;;;;1892478;75;25341;-91
2023/10/19 14:00:47;;;;;;;7.73;0.87;;;3.70;99.90;;;;;;1951208;72;27012;-90
2023/10/19 14:06:25;;;;;;;1.03;0.80;;;3.70;99.90;;;;;;1935225;72;27030;-92
2023/10/19 14:09:13;;;;;;;1.13;0.70;;;3.80;99.90;;;;;;1909977;74;25749;-91
2023/10/19 14:12:04;;;;;;;0.80;0.80;;;3.80;99.90;;;;;;1862762;75;25281;-91
2023/10/19 14:14:53;;;;;;;0.67;0.53;;;3.70;99.90;;;;;;1880485;75;25253;-91
2023/10/19 14:17:42;;;;;;;1.87;1.07;;;3.60;99.90;;;;;;1899082;75;25190;-91
2023/10/19 14:20:33;;;;;;;0.60;0.60;;;3.50;99.90;;;;;;1868888;75;25401;-92
2023/10/19 14:23:24;;;;;;;1.70;0.87;;;3.50;99.90;;;;;;1842210;76;25751;-91
2023/10/19 14:26:13;;;;;;;0.40;0.40;;;3.60;99.90;;;;;;1876709;75;25901;-92
2023/10/19 14:32:24;;;;;;;4.60;2.70;;;3.60;99.90;;;;;;1990517;71;26487;-92
2023/10/19 14:35:14;;;;;;;8.73;2.10;;;3.60;99.90;;;;;;2012116;69;25209;-92
2023/10/19 14:38:06;;;;;;;4.77;0.87;;;3.60;99.90;;;;;;2016513;69;25191;-92
2023/10/19 14:40:55;;;;;;;0.93;0.80;;;3.50;99.90;;;;;;2022502;70;25264;-92
2023/10/19 14:43:43;;;;;;;1.63;0.90;;;3.50;99.90;;;;;;1988061;71;25355;-93
2023/10/19 14:46:32;;;;;;;0.80;0.80;;;3.50;99.90;;;;;;1990510;70;25271;-92
2023/10/19 14:52:02;;;;;;;0.90;0.90;;;3.50;99.90;;;;;;1936498;72;27029;-92
2023/10/19 14:54:51;;;;;;;3.40;1.77;;;3.40;99.90;;;;;;1948563;72;25264;-92
2023/10/19 14:57:45;;;;;;;2.53;1.03;;;3.30;99.90;;;;;;1943974;72;25266;-92
2023/10/19 15:00:37;;;;;;;4.63;1.87;;;3.20;99.90;;;;;;1941258;72;25789;-92
2023/10/19 15:03:29;;;;;;;3.20;1.80;;;3.20;99.90;;;;;;1930076;73;25245;-93
2023/10/19 15:06:20;;;;;;;8.17;2.03;;;3.20;99.90;;;;;;1940976;73;25232;-93
2023/10/19 15:09:20;;;;;;;2.07;0.80;;;3.20;99.90;;;;;;1928846;73;25173;-92
2023/10/19 15:15:20;;;;;;;1.00;1.00;;;3.20;99.90;;;;;;1946036;73;25701;-92
2023/10/19 15:18:16;;;;;;;2.37;1.20;;;3.20;99.90;;;;;;1949359;72;25244;-92
2023/10/19 15:21:09;;;;;;;2.17;1.30;;;3.20;99.90;;;;;;1934229;73;25323;-92
2023/10/19 15:24:16;;;;;;;0.80;0.80;;;3.20;99.90;;;;;;1945052;72;25225;-92
2023/10/19 15:27:05;;;;;;;5.23;2.83;;;3.10;99.90;;;;;;1947389;72;25236;-90
2023/10/19 15:29:55;;;;;;;2.00;1.57;;;3.10;99.90;;;;;;1960617;72;25303;-90
2023/10/19 15:32:44;;;;;;;0.87;0.87;;;3.00;99.90;;;;;;1936620;72;25202;-90
2023/10/19 15:38:24;;;;;;;3.70;1.23;;;3.00;99.90;;;;;;1946314;72;26992;-90
2023/10/19 15:55:39;;;;;;;4.73;1.83;;;3.00;99.90;;;;;;1917519;73;26570;-88
2023/10/19 16:02:11;;;;;;;2.13;1.00;;;2.90;99.90;;;;;;1948396;69;27631;-90
2023/10/19 16:05:00;;;;;;;2.63;1.23;;;2.70;99.90;;;;;;1975401;70;25702;-90
2023/10/19 16:07:49;;;;;;;1.53;1.00;;;2.70;99.90;;;;;;1969378;72;25729;-90
2023/10/19 16:10:38;;;;;;;1.00;1.00;;;2.60;99.90;;;;;;1975096;72;25234;-90
2023/10/19 16:13:27;;;;;;;1.10;0.80;;;2.60;99.90;;;;;;1958591;72;25219;-90
2023/10/19 16:16:16;;;;;;;9.87;6.33;;;2.50;99.90;;;;;;1970124;72;25159;-89
2023/10/19 16:19:05;;;;;;;2.43;1.50;;;2.50;99.90;;;;;;1971857;72;25631;-88
2023/10/19 16:21:54;;;;;;;4.00;2.77;;;2.40;99.90;;;;;;1974235;72;25536;-87
2023/10/19 16:24:58;;;;;;;1.63;1.20;;;2.30;99.90;;;;;;1976240;71;25757;-88
2023/10/19 18:41:13;;;;;;;1.80;1.33;;;1.60;99.90;;;;;;1929513;73;25770;-88
2023/10/19 18:48:23;;;;;;;3.20;1.50;;;1.20;99.90;;;;;;1963268;72;25696;-88
2023/10/19 19:13:10;;;;;;;3.87;1.77;;;1.20;99.90;;;;;;2020469;70;31102;-87
2023/10/19 20:34:38;;;;;;;4.10;1.80;;;1.50;99.90;;;;;;1914878;73;27149;-88
2023/10/19 20:42:05;;;;;;;2.73;1.63;;;1.60;99.90;;;;;;1837593;76;25282;-88
2023/10/19 23:41:17;;;;;;;1.37;1.07;;;2.00;99.90;;;;;;1837308;76;25323;-90
